createdAt,value
2022-10-18T00:02:09.106Z,12.23
2022-10-18T00:04:56.587Z,11.57
2022-10-18T00:07:45.305Z,12.00
2022-10-18T00:10:32.486Z,12.98
2022-10-18T00:13:20.876Z,12.25
2022-10-18T00:16:19.185Z,12.50
2022-10-18T00:19:06.884Z,13.15
2022-10-18T00:21:54.135Z,12.27
2022-10-18T00:24:43.142Z,12.30
2022-10-18T00:27:31.014Z,12.40
2022-10-18T00:30:18.586Z,12.20
2022-10-18T00:33:05.821Z,13.02
2022-10-18T00:35:53.308Z,12.30
2022-10-18T00:38:41.148Z,12.27
2022-10-18T00:41:32.894Z,12.98
2022-10-18T00:45:12.301Z,14.20
2022-10-18T00:48:03.426Z,11.98
2022-10-18T00:50:52.330Z,13.87
2022-10-18T00:53:40.155Z,11.13
2022-10-18T00:56:28.035Z,12.88
2022-10-18T00:59:18.356Z,12.85
2022-10-18T01:02:07.232Z,12.48
2022-10-18T01:04:54.301Z,12.33
2022-10-18T01:08:04.149Z,11.45
2022-10-18T01:11:02.178Z,12.98
2022-10-18T01:14:05.669Z,13.38
2022-10-18T01:17:00.750Z,13.70
2022-10-18T01:20:42.053Z,12.70
2022-10-18T01:23:41.031Z,13.13
2022-10-18T01:26:42.061Z,13.05
2022-10-18T01:29:52.915Z,12.77
2022-10-18T01:32:48.781Z,11.30
2022-10-18T01:35:40.667Z,11.90
2022-10-18T01:38:31.051Z,13.65
2022-10-18T01:41:21.433Z,11.90
2022-10-18T01:44:12.736Z,12.68
2022-10-18T01:47:01.215Z,12.38
2022-10-18T01:49:49.670Z,14.07
2022-10-18T01:52:37.596Z,14.25
2022-10-18T01:55:32.381Z,13.45
2022-10-18T01:58:23.645Z,14.23
2022-10-18T02:01:20.758Z,14.05
2022-10-18T02:04:18.199Z,12.83
2022-10-18T02:07:15.009Z,13.93
2022-10-18T02:10:10.030Z,14.30
2022-10-18T02:12:58.163Z,15.02
2022-10-18T02:15:52.422Z,14.43
2022-10-18T02:18:43.183Z,15.20
2022-10-18T02:21:31.986Z,14.52
2022-10-18T02:24:23.227Z,14.93
2022-10-18T02:27:11.346Z,15.55
2022-10-18T02:29:59.616Z,13.45
2022-10-18T02:32:52.575Z,13.33
2022-10-18T02:35:46.071Z,14.15
2022-10-18T02:38:34.222Z,15.43
2022-10-18T02:41:26.854Z,17.17
2022-10-18T02:44:14.725Z,19.67
2022-10-18T02:47:11.039Z,15.90
2022-10-18T02:49:58.292Z,15.77
2022-10-18T02:52:45.777Z,19.58
2022-10-18T02:55:33.365Z,20.75
2022-10-18T02:58:22.030Z,16.55
2022-10-18T03:01:09.466Z,17.20
2022-10-18T03:03:56.825Z,15.43
2022-10-18T03:06:44.718Z,14.88
2022-10-18T03:09:32.469Z,13.95
2022-10-18T03:12:19.875Z,14.68
2022-10-18T03:15:09.658Z,14.40
2022-10-18T03:17:57.080Z,15.73
2022-10-18T03:20:45.046Z,14.82
2022-10-18T03:23:32.265Z,15.63
2022-10-18T03:26:21.490Z,14.30
2022-10-18T03:29:08.817Z,15.97
2022-10-18T03:31:57.678Z,17.10
2022-10-18T03:34:45.260Z,17.88
2022-10-18T03:37:32.970Z,17.27
2022-10-18T03:40:20.871Z,16.15
2022-10-18T03:43:08.176Z,16.00
2022-10-18T03:45:55.873Z,16.55
2022-10-18T03:48:44.693Z,19.52
2022-10-18T03:51:32.660Z,18.33
2022-10-18T03:54:20.227Z,14.52
2022-10-18T03:57:07.698Z,14.20
2022-10-18T03:59:55.039Z,14.15
2022-10-18T04:02:42.152Z,15.57
2022-10-18T04:05:31.654Z,14.48
2022-10-18T04:08:20.305Z,15.15
2022-10-18T04:11:09.993Z,14.87
2022-10-18T04:13:57.825Z,16.08
2022-10-18T04:16:45.454Z,17.23
2022-10-18T04:19:33.078Z,16.60
2022-10-18T04:22:21.590Z,16.77
2022-10-18T04:25:09.343Z,16.30
2022-10-18T04:27:57.299Z,16.58
2022-10-18T04:30:44.815Z,18.30
2022-10-18T04:33:32.481Z,17.55
2022-10-18T04:36:19.881Z,19.02
2022-10-18T04:39:08.744Z,17.53
2022-10-18T04:41:56.289Z,18.92
2022-10-18T04:44:43.592Z,18.20
2022-10-18T04:47:31.151Z,20.30
2022-10-18T04:50:19.182Z,19.77
2022-10-18T04:53:06.301Z,19.03
2022-10-18T04:55:55.576Z,17.63
2022-10-18T04:58:43.158Z,20.77
2022-10-18T05:01:31.018Z,18.55
2022-10-18T05:04:18.261Z,19.30
2022-10-18T05:07:06.642Z,21.27
2022-10-18T05:09:53.822Z,20.45
2022-10-18T05:12:43.844Z,19.67
2022-10-18T05:15:31.350Z,18.70
2022-10-18T05:18:18.950Z,20.15
2022-10-18T05:21:06.251Z,19.27
2022-10-18T05:23:56.987Z,20.33
2022-10-18T05:26:44.755Z,19.15
2022-10-18T05:29:34.125Z,18.13
2022-10-18T05:32:21.594Z,19.30
2022-10-18T05:35:09.938Z,17.80
2022-10-18T05:37:57.337Z,19.50
2022-10-18T05:40:44.881Z,20.15
2022-10-18T05:43:31.969Z,21.27
2022-10-18T05:46:21.189Z,22.77
2022-10-18T05:49:08.645Z,19.97
2022-10-18T05:51:56.125Z,18.88
2022-10-18T05:54:43.034Z,21.90
2022-10-18T05:57:31.093Z,20.83
2022-10-18T06:00:19.293Z,26.08
2022-10-18T06:03:08.248Z,19.60
2022-10-18T06:06:00.516Z,19.40
2022-10-18T06:08:50.686Z,22.73
2022-10-18T06:11:38.408Z,23.98
2022-10-18T06:14:25.701Z,23.75
2022-10-18T06:17:13.584Z,23.87
2022-10-18T06:20:02.464Z,20.15
2022-10-18T06:22:52.625Z,21.45
2022-10-18T06:25:40.713Z,20.70
2022-10-18T06:28:28.261Z,23.80
2022-10-18T06:31:16.499Z,22.20
2022-10-18T06:34:04.538Z,21.45
2022-10-18T06:36:56.596Z,20.08
2022-10-18T06:39:45.882Z,20.25
2022-10-18T06:42:33.623Z,21.40
2022-10-18T06:45:20.853Z,19.30
2022-10-18T06:48:08.878Z,21.00
2022-10-18T06:50:58.298Z,22.23
2022-10-18T06:54:05.956Z,20.45
2022-10-18T06:56:57.637Z,21.95
2022-10-18T06:59:45.150Z,21.77
2022-10-18T07:02:32.690Z,20.45
2022-10-18T07:05:20.532Z,21.98
2022-10-18T07:08:07.899Z,19.90
2022-10-18T07:10:57.315Z,20.98
2022-10-18T07:13:44.606Z,19.90
2022-10-18T07:16:33.850Z,22.50
2022-10-18T07:19:21.425Z,22.67
2022-10-18T07:22:09.279Z,20.38
2022-10-18T07:24:56.953Z,20.55
2022-10-18T07:27:45.586Z,19.27
2022-10-18T07:30:33.313Z,20.40
2022-10-18T07:33:20.975Z,20.65
2022-10-18T07:36:11.184Z,18.80
2022-10-18T07:38:59.634Z,20.70
2022-10-18T07:41:47.360Z,20.30
2022-10-18T07:44:36.116Z,20.98
2022-10-18T07:47:23.555Z,20.10
2022-10-18T07:50:11.333Z,21.48
2022-10-18T07:52:58.707Z,19.55
2022-10-18T07:55:46.405Z,19.47
2022-10-18T07:58:33.850Z,21.27
2022-10-18T08:01:23.676Z,19.20
2022-10-18T08:04:16.209Z,18.40
2022-10-18T08:07:03.947Z,19.88
2022-10-18T08:09:51.303Z,18.47
2022-10-18T08:12:38.884Z,19.67
2022-10-18T08:15:26.624Z,19.85
2022-10-18T08:18:15.837Z,21.55
2022-10-18T08:21:04.495Z,19.23
2022-10-18T08:23:53.761Z,21.30
2022-10-18T08:26:41.055Z,20.23
2022-10-18T08:29:31.749Z,22.38
2022-10-18T08:32:20.119Z,20.30
2022-10-18T08:35:09.717Z,22.40
2022-10-18T08:37:56.858Z,22.47
2022-10-18T08:40:45.351Z,20.33
2022-10-18T08:43:39.297Z,22.17
2022-10-18T08:46:26.866Z,24.05
2022-10-18T08:49:24.090Z,21.10
2022-10-18T08:52:20.428Z,20.00
2022-10-18T08:55:15.802Z,22.73
2022-10-18T08:58:05.344Z,23.27
2022-10-18T09:01:03.820Z,26.35
2022-10-18T09:04:20.749Z,24.48
2022-10-18T09:07:25.671Z,29.37
2022-10-18T09:10:27.025Z,24.98
2022-10-18T09:13:37.798Z,26.33
2022-10-18T09:16:35.207Z,24.10
2022-10-18T09:19:37.088Z,25.80
2022-10-18T09:22:34.098Z,28.17
2022-10-18T09:25:25.221Z,25.92
2022-10-18T09:28:21.145Z,24.73
2022-10-18T09:31:17.594Z,24.35
2022-10-18T09:34:11.689Z,24.98
2022-10-18T09:36:59.201Z,26.33
2022-10-18T09:39:51.126Z,26.88
2022-10-18T09:42:41.714Z,26.67
2022-10-18T09:45:32.200Z,24.65
2022-10-18T09:48:25.226Z,24.38
2022-10-18T09:51:17.757Z,25.40
2022-10-18T09:54:16.661Z,23.92
2022-10-18T09:57:09.580Z,26.00
2022-10-18T09:59:59.143Z,21.35
2022-10-18T10:02:47.070Z,24.30
2022-10-18T10:05:34.941Z,20.97
2022-10-18T10:08:34.616Z,25.65
2022-10-18T10:11:31.544Z,24.92
2022-10-18T10:14:23.309Z,26.48
2022-10-18T10:17:23.572Z,26.33
2022-10-18T10:20:19.805Z,21.60
2022-10-18T10:23:09.533Z,23.48
2022-10-18T10:25:59.619Z,20.75
2022-10-18T10:28:49.147Z,20.15
2022-10-18T10:31:38.117Z,24.75
2022-10-18T10:34:31.002Z,17.00
2022-10-18T10:37:35.057Z,21.15
2022-10-18T10:40:27.835Z,20.80
2022-10-18T10:43:36.582Z,23.13
2022-10-18T10:46:35.836Z,20.60
2022-10-18T10:49:39.762Z,20.57
2022-10-18T10:52:31.750Z,21.15
2022-10-18T10:55:34.991Z,23.35
2022-10-18T10:58:23.791Z,24.77
2022-10-18T11:01:26.367Z,19.83
2022-10-18T11:04:30.460Z,22.03
2022-10-18T11:07:24.445Z,21.60
2022-10-18T11:10:16.616Z,26.50
2022-10-18T11:13:14.803Z,23.60
2022-10-18T11:16:08.361Z,22.40
2022-10-18T11:18:58.891Z,22.53
2022-10-18T11:21:48.048Z,22.58
2022-10-18T11:24:37.181Z,18.05
2022-10-18T11:27:29.566Z,20.05
2022-10-18T11:30:38.587Z,19.00
2022-10-18T11:34:07.110Z,19.07
2022-10-18T11:37:09.650Z,17.05
2022-10-18T11:40:15.558Z,17.58
2022-10-18T11:43:12.115Z,18.52
2022-10-18T11:46:06.567Z,13.57
2022-10-18T11:49:12.919Z,15.43
2022-10-18T11:52:14.641Z,15.82
2022-10-18T11:55:31.906Z,14.05
2022-10-18T11:58:39.459Z,16.58
2022-10-18T12:01:35.827Z,15.80
2022-10-18T12:04:25.938Z,19.20
2022-10-18T12:07:21.193Z,15.13
2022-10-18T12:10:26.349Z,17.75
2022-10-18T12:13:34.375Z,14.00
2022-10-18T12:16:39.236Z,16.65
2022-10-18T12:19:36.068Z,17.10
2022-10-18T12:22:30.166Z,14.73
2022-10-18T12:25:20.027Z,19.92
2022-10-18T12:28:15.314Z,13.45
2022-10-18T12:31:14.003Z,14.18
2022-10-18T12:34:04.479Z,16.73
2022-10-18T12:40:10.193Z,15.30
2022-10-18T12:43:00.156Z,17.48
2022-10-18T12:45:54.081Z,16.83
2022-10-18T12:48:45.340Z,11.37
2022-10-18T12:51:32.792Z,15.25
2022-10-18T12:54:28.093Z,13.60
2022-10-18T12:57:24.878Z,12.43
2022-10-18T13:00:55.234Z,14.27
2022-10-18T13:03:56.452Z,11.80
2022-10-18T13:07:20.347Z,12.30
2022-10-18T13:10:41.462Z,10.13
2022-10-18T13:13:46.089Z,8.98
2022-10-18T13:16:42.172Z,14.30
2022-10-18T13:19:39.659Z,12.80
2022-10-18T13:22:49.830Z,8.15
2022-10-18T13:25:50.972Z,7.10
2022-10-18T13:28:50.738Z,7.18
2022-10-18T13:31:45.024Z,9.35
2022-10-18T13:34:35.286Z,7.37
2022-10-18T13:37:25.646Z,8.30
2022-10-18T13:40:24.316Z,10.20
2022-10-18T13:43:41.736Z,7.82
2022-10-18T13:47:02.374Z,6.38
2022-10-18T13:50:12.931Z,6.73
2022-10-18T13:53:30.577Z,9.32
2022-10-18T13:56:34.718Z,10.40
2022-10-18T14:02:58.504Z,6.22
2022-10-18T14:05:54.260Z,8.83
2022-10-18T14:08:47.430Z,7.35
2022-10-18T14:11:46.201Z,6.97
2022-10-18T14:14:41.920Z,8.60
2022-10-18T14:20:40.024Z,9.30
2022-10-18T14:23:36.528Z,8.57
2022-10-18T14:26:24.266Z,7.47
2022-10-18T14:29:19.931Z,6.97
2022-10-18T14:32:11.607Z,10.30
2022-10-18T14:35:30.647Z,7.63
2022-10-18T14:38:14.813Z,7.85
2022-10-18T14:41:15.260Z,6.75
2022-10-18T14:44:19.908Z,8.25
2022-10-18T14:47:16.316Z,7.70
2022-10-18T14:50:04.038Z,6.43
2022-10-18T14:52:51.640Z,6.65
2022-10-18T14:55:43.118Z,6.40
2022-10-18T14:58:32.583Z,6.88
2022-10-18T15:01:22.682Z,6.15
2022-10-18T15:04:12.702Z,7.70
2022-10-18T15:07:03.052Z,7.50
2022-10-18T15:09:50.980Z,5.85
2022-10-18T15:13:04.530Z,5.70
2022-10-18T15:15:51.626Z,6.40
2022-10-18T15:18:39.334Z,5.33
2022-10-18T15:21:27.116Z,5.97
2022-10-18T15:24:22.992Z,8.45
2022-10-18T15:27:16.365Z,8.48
2022-10-18T15:30:08.498Z,6.63
2022-10-18T15:32:58.734Z,8.17
2022-10-18T15:35:46.644Z,5.30
2022-10-18T15:38:36.836Z,6.22
2022-10-18T15:41:42.854Z,6.22
2022-10-18T15:44:34.855Z,4.32
2022-10-18T15:47:24.410Z,7.67
2022-10-18T15:50:38.068Z,4.70
2022-10-18T15:53:50.813Z,4.68
2022-10-18T15:56:41.615Z,5.68
2022-10-18T15:59:32.594Z,5.47
2022-10-18T16:02:22.179Z,5.90
2022-10-18T16:05:18.644Z,5.45
2022-10-18T16:08:07.592Z,4.40
2022-10-18T16:10:55.957Z,5.10
2022-10-18T16:13:43.997Z,5.38
2022-10-18T16:16:32.308Z,4.63
2022-10-18T16:19:22.934Z,4.97
2022-10-18T16:22:16.691Z,7.22
2022-10-18T16:25:08.452Z,5.75
2022-10-18T16:27:57.893Z,7.88
2022-10-18T16:30:56.229Z,4.93
2022-10-18T16:33:45.505Z,8.90
2022-10-18T16:36:38.687Z,8.00
2022-10-18T16:39:35.828Z,7.50
2022-10-18T16:42:24.917Z,5.60
2022-10-18T16:45:12.666Z,4.90
2022-10-18T16:48:00.032Z,5.35
2022-10-18T16:50:48.090Z,5.47
2022-10-18T16:53:35.718Z,6.60
2022-10-18T16:56:28.210Z,6.40
2022-10-18T16:59:24.463Z,6.40
2022-10-18T17:02:12.226Z,6.95
2022-10-18T17:04:59.910Z,4.93
2022-10-18T17:07:48.230Z,4.80
2022-10-18T17:10:35.706Z,6.28
2022-10-18T17:13:26.211Z,7.43
2022-10-18T17:16:24.259Z,5.78
2022-10-18T17:19:12.826Z,5.25
2022-10-18T17:22:02.676Z,6.82
2022-10-18T17:24:50.699Z,11.98
2022-10-18T17:27:38.221Z,5.40
2022-10-18T17:30:26.990Z,5.10
2022-10-18T17:33:15.739Z,5.03
2022-10-18T17:36:03.542Z,10.00
2022-10-18T17:38:52.209Z,6.35
2022-10-18T17:41:39.660Z,4.90
2022-10-18T17:44:27.161Z,5.18
2022-10-18T17:47:16.200Z,4.80
2022-10-18T17:50:04.079Z,5.90
2022-10-18T17:52:51.909Z,4.10
2022-10-18T17:55:39.471Z,7.40
2022-10-18T17:58:27.211Z,7.50
2022-10-18T18:01:16.332Z,9.10
2022-10-18T18:04:05.809Z,10.98
2022-10-18T18:06:54.059Z,11.13
2022-10-18T18:09:42.131Z,7.03
2022-10-18T18:12:29.940Z,11.45
2022-10-18T18:15:17.592Z,10.70
2022-10-18T18:18:04.935Z,6.30
2022-10-18T18:20:55.187Z,7.90
2022-10-18T18:23:43.164Z,20.57
2022-10-18T18:26:33.306Z,20.73
2022-10-18T18:29:21.054Z,12.02
2022-10-18T18:32:08.201Z,10.95
2022-10-18T18:34:55.755Z,11.35
2022-10-18T18:37:44.743Z,12.83
2022-10-18T18:40:32.041Z,10.98
2022-10-18T18:43:23.170Z,11.82
2022-10-18T18:46:12.915Z,14.85
2022-10-18T18:49:01.121Z,13.30
2022-10-18T18:51:49.457Z,10.63
2022-10-18T18:54:38.220Z,7.40
2022-10-18T18:57:26.083Z,7.93
2022-10-18T19:00:15.189Z,6.57
2022-10-18T19:03:02.905Z,7.45
2022-10-18T19:05:50.448Z,9.13
2022-10-18T19:08:40.872Z,7.72
2022-10-18T19:11:32.582Z,9.93
2022-10-18T19:17:13.493Z,9.45
2022-10-18T19:20:01.388Z,7.23
2022-10-18T19:22:48.826Z,5.40
2022-10-18T19:25:35.832Z,6.93
2022-10-18T19:28:25.029Z,7.25
2022-10-18T19:31:12.620Z,10.00
2022-10-18T19:34:00.188Z,6.87
2022-10-18T19:36:49.302Z,11.63
2022-10-18T19:39:37.190Z,7.63
2022-10-18T19:42:30.305Z,5.80
2022-10-18T19:45:19.857Z,7.93
2022-10-18T19:48:11.239Z,7.97
2022-10-18T19:51:07.076Z,5.88
2022-10-18T19:53:57.756Z,6.57
2022-10-18T19:56:45.680Z,8.10
2022-10-18T19:59:34.570Z,6.38
2022-10-18T20:02:23.003Z,7.00
2022-10-18T20:05:11.130Z,5.28
2022-10-18T20:07:58.629Z,6.75
2022-10-18T20:10:46.162Z,7.68
2022-10-18T20:13:33.784Z,5.07
2022-10-18T20:16:27.892Z,6.67
2022-10-18T20:19:17.309Z,14.32
2022-10-18T20:22:04.831Z,5.75
2022-10-18T20:24:52.358Z,5.95
2022-10-18T20:27:40.041Z,5.25
2022-10-18T20:30:27.701Z,5.77
2022-10-18T20:33:15.337Z,7.45
2022-10-18T20:36:06.660Z,6.18
2022-10-18T20:38:54.962Z,5.13
2022-10-18T20:41:42.928Z,5.55
2022-10-18T20:44:32.086Z,7.10
2022-10-18T20:47:19.989Z,5.88
2022-10-18T20:50:07.969Z,6.15
2022-10-18T20:52:56.300Z,7.20
2022-10-18T20:55:43.786Z,6.22
2022-10-18T20:58:31.278Z,5.37
2022-10-18T21:01:20.078Z,6.00
2022-10-18T21:04:10.350Z,5.28
2022-10-18T21:06:57.564Z,6.10
2022-10-18T21:09:46.806Z,7.25
2022-10-18T21:12:35.154Z,6.30
2022-10-18T21:15:22.764Z,5.43
2022-10-18T21:18:10.334Z,5.10
2022-10-18T21:21:07.564Z,6.70
2022-10-18T21:23:55.135Z,5.85
2022-10-18T21:26:43.805Z,6.17
2022-10-18T21:29:31.724Z,5.80
2022-10-18T21:32:19.263Z,5.18
2022-10-18T21:35:07.706Z,5.13
2022-10-18T21:37:55.299Z,7.00
2022-10-18T21:40:44.750Z,6.43
2022-10-18T21:43:33.440Z,5.40
2022-10-18T21:46:22.294Z,4.80
2022-10-18T21:49:09.557Z,6.25
2022-10-18T21:51:57.283Z,6.20
2022-10-18T21:54:44.416Z,4.90
2022-10-18T21:57:31.581Z,4.93
2022-10-18T22:00:20.564Z,6.30
2022-10-18T22:03:09.068Z,5.22
2022-10-18T22:06:01.475Z,5.25
2022-10-18T22:08:51.641Z,5.10
2022-10-18T22:11:41.892Z,8.07
2022-10-18T22:14:29.566Z,5.95
2022-10-18T22:17:18.330Z,6.00
2022-10-18T22:20:07.037Z,6.32
2022-10-18T22:22:55.825Z,5.27
2022-10-18T22:25:43.309Z,7.20
2022-10-18T22:28:30.544Z,5.82
2022-10-18T22:31:20.464Z,6.45
2022-10-18T22:34:12.352Z,5.05
2022-10-18T22:36:59.525Z,5.40
2022-10-18T22:39:47.235Z,6.70
2022-10-18T22:45:26.517Z,4.38
2022-10-18T22:48:14.162Z,5.28
2022-10-18T22:51:04.074Z,4.73
2022-10-18T22:53:51.630Z,5.47
2022-10-18T22:56:38.960Z,5.50
2022-10-18T22:59:26.091Z,4.60
2022-10-18T23:02:13.407Z,4.97
2022-10-18T23:05:00.992Z,5.93
2022-10-18T23:07:52.519Z,5.47
2022-10-18T23:10:40.771Z,6.07
2022-10-18T23:13:29.385Z,5.07
2022-10-18T23:16:17.493Z,5.18
2022-10-18T23:19:05.647Z,6.13
2022-10-18T23:21:52.919Z,4.15
2022-10-18T23:24:42.109Z,5.65
2022-10-18T23:27:30.547Z,5.75
2022-10-18T23:30:18.228Z,5.30
2022-10-18T23:33:05.703Z,5.33
2022-10-18T23:35:52.889Z,4.50
2022-10-18T23:38:40.941Z,4.75
2022-10-18T23:41:29.997Z,5.57
2022-10-18T23:44:17.297Z,6.80
2022-10-18T23:47:05.379Z,6.53
2022-10-18T23:49:53.262Z,4.97
2022-10-18T23:52:40.493Z,6.10
2022-10-18T23:55:28.768Z,6.82
2022-10-18T23:58:17.886Z,5.28
